createdAt,value
2023-03-22T00:00:00.618Z,100.00
2023-03-22T00:05:04.921Z,100.00
2023-03-22T00:10:08.387Z,100.00
2023-03-22T00:15:12.009Z,100.00
2023-03-22T00:20:19.620Z,100.00
2023-03-22T00:25:23.094Z,100.00
2023-03-22T00:30:25.760Z,100.00
2023-03-22T00:35:29.592Z,100.00
2023-03-22T00:40:32.318Z,100.00
2023-03-22T00:45:36.241Z,100.00
2023-03-22T00:50:41.695Z,100.00
2023-03-22T00:55:44.194Z,100.00
2023-03-22T01:00:46.769Z,100.00
2023-03-22T01:05:55.235Z,100.00
2023-03-22T01:10:57.729Z,100.00
2023-03-22T01:16:00.252Z,100.00
2023-03-22T01:21:04.155Z,100.00
2023-03-22T01:26:07.198Z,100.00
2023-03-22T01:31:09.716Z,100.00
2023-03-22T01:36:13.644Z,100.00
2023-03-22T01:41:17.126Z,100.00
2023-03-22T01:46:19.617Z,100.00
2023-03-22T01:51:25.878Z,100.00
2023-03-22T01:56:32.274Z,100.00
2023-03-22T02:01:36.231Z,100.00
2023-03-22T02:06:40.312Z,100.00
2023-03-22T02:11:45.037Z,100.00
2023-03-22T02:16:57.939Z,100.00
2023-03-22T02:22:30.745Z,100.00
2023-03-22T02:27:47.288Z,100.00
2023-03-22T02:33:06.593Z,100.00
2023-03-22T02:38:59.709Z,100.00
2023-03-22T02:44:09.923Z,100.00
2023-03-22T02:49:21.020Z,100.00
2023-03-22T02:54:29.556Z,100.00
2023-03-22T02:59:37.436Z,100.00
2023-03-22T03:04:45.598Z,100.00
2023-03-22T03:09:51.216Z,100.00
2023-03-22T03:14:53.766Z,100.00
2023-03-22T03:20:12.124Z,100.00
2023-03-22T03:25:30.211Z,100.00
2023-03-22T03:30:40.661Z,100.00
2023-03-22T03:35:50.720Z,100.00
2023-03-22T03:41:00.037Z,100.00
2023-03-22T03:46:02.897Z,100.00
2023-03-22T03:51:05.679Z,100.00
2023-03-22T03:56:10.014Z,100.00
2023-03-22T04:01:12.653Z,100.00
2023-03-22T04:06:15.138Z,100.00
2023-03-22T04:11:18.975Z,100.00
2023-03-22T04:16:24.931Z,100.00
2023-03-22T04:21:27.534Z,100.00
2023-03-22T04:26:31.578Z,100.00
2023-03-22T04:31:35.672Z,100.00
2023-03-22T04:36:39.860Z,100.00
2023-03-22T04:41:43.717Z,100.00
2023-03-22T04:46:46.270Z,100.00
2023-03-22T04:51:51.814Z,100.00
2023-03-22T04:56:55.716Z,100.00
2023-03-22T05:01:58.293Z,100.00
2023-03-22T05:07:00.929Z,100.00
2023-03-22T05:12:04.820Z,100.00
2023-03-22T05:17:07.301Z,100.00
2023-03-22T05:22:11.895Z,100.00
2023-03-22T05:27:15.707Z,100.00
2023-03-22T05:32:18.313Z,100.00
2023-03-22T05:37:21.061Z,100.00
2023-03-22T05:42:24.858Z,100.00
2023-03-22T05:47:27.331Z,100.00
2023-03-22T05:52:29.846Z,100.00
2023-03-22T05:57:33.906Z,100.00
2023-03-22T06:02:36.779Z,100.00
2023-03-22T06:07:39.835Z,100.00
2023-03-22T06:12:43.696Z,100.00
2023-03-22T06:17:46.428Z,100.00
2023-03-22T06:22:48.913Z,100.00
2023-03-22T06:27:52.749Z,100.00
2023-03-22T06:32:55.338Z,100.00
2023-03-22T06:37:57.957Z,100.00
2023-03-22T06:43:05.150Z,100.00
2023-03-22T06:48:08.944Z,100.00
2023-03-22T06:53:11.469Z,100.00
2023-03-22T06:58:15.273Z,100.00
2023-03-22T07:03:17.726Z,100.00
2023-03-22T07:08:20.270Z,100.00
2023-03-22T07:13:24.255Z,100.00
2023-03-22T07:18:27.571Z,100.00
2023-03-22T07:23:30.121Z,100.00
2023-03-22T07:28:34.311Z,100.00
2023-03-22T07:33:36.834Z,100.00
2023-03-22T07:38:39.358Z,100.00
2023-03-22T07:43:54.020Z,100.00
2023-03-22T07:48:57.842Z,100.00
2023-03-22T07:54:00.364Z,100.00
2023-03-22T07:59:04.309Z,100.00
2023-03-22T08:04:06.860Z,100.00
2023-03-22T08:09:09.487Z,100.00
2023-03-22T08:14:13.280Z,100.00
2023-03-22T08:19:15.901Z,100.00
2023-03-22T08:24:18.377Z,100.00
2023-03-22T08:29:23.566Z,100.00
2023-03-22T08:34:26.076Z,100.00
2023-03-22T08:39:28.569Z,100.00
2023-03-22T08:44:32.833Z,100.00
2023-03-22T08:49:35.689Z,100.00
2023-03-22T08:54:38.636Z,100.00
2023-03-22T08:59:42.491Z,100.00
2023-03-22T09:04:45.024Z,100.00
2023-03-22T09:09:47.680Z,100.00
2023-03-22T09:14:51.756Z,100.00
2023-03-22T09:20:06.024Z,100.00
2023-03-22T09:25:13.831Z,100.00
2023-03-22T09:30:17.664Z,100.00
2023-03-22T09:35:20.221Z,100.00
2023-03-22T09:40:26.734Z,100.00
2023-03-22T09:45:38.376Z,100.00
2023-03-22T09:50:46.460Z,99.42
2023-03-22T09:55:55.892Z,98.80
2023-03-22T10:01:03.401Z,98.79
2023-03-22T10:06:09.896Z,98.97
2023-03-22T10:11:22.288Z,98.83
2023-03-22T10:16:29.613Z,98.42
2023-03-22T10:21:33.889Z,97.59
2023-03-22T10:26:40.485Z,97.76
2023-03-22T10:31:45.933Z,97.21
2023-03-22T10:36:51.832Z,97.07
2023-03-22T10:41:57.970Z,96.75
2023-03-22T10:47:08.026Z,96.66
2023-03-22T10:52:24.832Z,96.09
2023-03-22T10:57:27.403Z,96.00
2023-03-22T11:02:32.807Z,95.47
2023-03-22T11:07:38.070Z,95.47
2023-03-22T11:12:43.547Z,95.27
2023-03-22T11:17:47.618Z,94.38
2023-03-22T11:22:52.069Z,93.75
2023-03-22T11:27:56.794Z,93.75
2023-03-22T11:33:17.558Z,94.13
2023-03-22T11:38:29.451Z,93.90
2023-03-22T11:43:38.567Z,93.39
2023-03-22T11:48:43.488Z,92.26
2023-03-22T11:53:48.689Z,91.89
2023-03-22T11:58:59.922Z,91.45
2023-03-22T12:04:09.654Z,91.22
2023-03-22T12:09:23.127Z,91.38
2023-03-22T12:14:29.592Z,91.21
2023-03-22T12:19:46.277Z,91.60
2023-03-22T12:24:48.951Z,91.05
2023-03-22T12:29:57.558Z,89.66
2023-03-22T12:35:18.084Z,87.59
2023-03-22T12:40:25.119Z,87.74
2023-03-22T12:45:30.102Z,86.03
2023-03-22T12:50:38.052Z,86.34
2023-03-22T12:55:41.975Z,86.68
2023-03-22T13:00:49.636Z,85.72
2023-03-22T13:06:03.046Z,86.03
2023-03-22T13:11:06.284Z,86.42
2023-03-22T13:16:19.300Z,86.48
2023-03-22T13:21:24.539Z,86.57
2023-03-22T13:26:34.494Z,86.52
2023-03-22T13:31:41.715Z,85.55
2023-03-22T13:36:53.695Z,85.10
2023-03-22T13:42:06.983Z,85.36
2023-03-22T13:47:30.587Z,85.08
2023-03-22T13:52:41.242Z,84.66
2023-03-22T13:57:50.816Z,84.81
2023-03-22T14:02:55.017Z,84.06
2023-03-22T14:08:01.041Z,82.76
2023-03-22T14:13:06.785Z,82.28
2023-03-22T14:18:15.764Z,81.79
